sensor_id;sensor_type;location;lat;lon;timestamp;pressure;altitude;pressure_sealevel;temperature;humidity
2268;BME280;11052;43.338;25.502;2023-03-02T00:01:19;101348.94;;;6.23;100.00
2268;BME280;11052;43.338;25.502;2023-03-02T00:03:47;101353.25;;;6.26;100.00
2268;BME280;11052;43.338;25.502;2023-03-02T00:06:15;101348.09;;;6.21;100.00
2268;BME280;11052;43.338;25.502;2023-03-02T00:08:43;101336.03;;;6.16;100.00
2268;BME280;11052;43.338;25.502;2023-03-02T00:11:12;101347.19;;;6.13;100.00
2268;BME280;11052;43.338;25.502;2023-03-02T00:13:41;101334.38;;;6.24;100.00
2268;BME280;11052;43.338;25.502;2023-03-02T00:16:09;101336.03;;;6.14;100.00
2268;BME280;11052;43.338;25.502;2023-03-02T00:18:36;101325.72;;;6.08;100.00
2268;BME280;11052;43.338;25.502;2023-03-02T00:21:03;101319.72;;;6.12;100.00
2268;BME280;11052;43.338;25.502;2023-03-02T00:23:35;101320.56;;;6.02;100.00
2268;BME280;11052;43.338;25.502;2023-03-02T00:26:02;101318.88;;;6.06;100.00
2268;BME280;11052;43.338;25.502;2023-03-02T00:28:31;101318.00;;;6.11;100.00
2268;BME280;11052;43.338;25.502;2023-03-02T00:30:58;101314.56;;;6.02;100.00
2268;BME280;11052;43.338;25.502;2023-03-02T00:33:25;101313.69;;;6.00;100.00
2268;BME280;11052;43.338;25.502;2023-03-02T00:35:52;101311.97;;;6.00;100.00
2268;BME280;11052;43.338;25.502;2023-03-02T00:38:19;101317.97;;;5.98;100.00
2268;BME280;11052;43.338;25.502;2023-03-02T00:40:47;101306.81;;;5.94;100.00
2268;BME280;11052;43.338;25.502;2023-03-02T00:43:15;101305.13;;;6.02;100.00
2268;BME280;11052;43.338;25.502;2023-03-02T00:45:43;101303.41;;;6.04;100.00
2268;BME280;11052;43.338;25.502;2023-03-02T00:48:11;101305.13;;;6.02;100.00
2268;BME280;11052;43.338;25.502;2023-03-02T00:50:38;101292.25;;;6.07;100.00
2268;BME280;11052;43.338;25.502;2023-03-02T00:53:06;101290.53;;;6.03;100.00
2268;BME280;11052;43.338;25.502;2023-03-02T00:55:34;101290.44;;;5.87;100.00
2268;BME280;11052;43.338;25.502;2023-03-02T00:58:01;101286.25;;;6.09;100.00
2268;BME280;11052;43.338;25.502;2023-03-02T01:00:29;101293.09;;;6.01;100.00
2268;BME280;11052;43.338;25.502;2023-03-02T01:02:57;101292.22;;;5.96;100.00
2268;BME280;11052;43.338;25.502;2023-03-02T01:05:25;101289.63;;;5.93;100.00
2268;BME280;11052;43.338;25.502;2023-03-02T01:07:52;101284.44;;;5.87;100.00
2268;BME280;11052;43.338;25.502;2023-03-02T01:10:19;101284.44;;;5.87;100.00
2268;BME280;11052;43.338;25.502;2023-03-02T01:12:46;101297.25;;;5.79;100.00
2268;BME280;11052;43.338;25.502;2023-03-02T01:15:13;101288.66;;;5.76;100.00
2268;BME280;11052;43.338;25.502;2023-03-02T01:17:40;101292.94;;;5.75;100.00
2268;BME280;11052;43.338;25.502;2023-03-02T01:20:11;101286.06;;;5.74;100.00
2268;BME280;11052;43.338;25.502;2023-03-02T01:22:38;101274.91;;;5.74;100.00
2268;BME280;11052;43.338;25.502;2023-03-02T01:25:05;101294.69;;;5.79;100.00
2268;BME280;11052;43.338;25.502;2023-03-02T01:27:33;101280.91;;;5.71;100.00
2268;BME280;11052;43.338;25.502;2023-03-02T01:30:00;101290.34;;;5.72;100.00
2268;BME280;11052;43.338;25.502;2023-03-02T01:32:27;101288.66;;;5.76;100.00
2268;BME280;11052;43.338;25.502;2023-03-02T01:34:54;101288.69;;;5.82;100.00
2268;BME280;11052;43.338;25.502;2023-03-02T01:37:22;101291.22;;;5.76;100.00
2268;BME280;11052;43.338;25.502;2023-03-02T01:39:49;101293.78;;;5.73;100.00
2268;BME280;11052;43.338;25.502;2023-03-02T01:42:17;101292.94;;;5.72;100.00
2268;BME280;11052;43.338;25.502;2023-03-02T01:44:46;101293.75;;;5.65;100.00
2268;BME280;11052;43.338;25.502;2023-03-02T01:47:16;101290.31;;;5.68;100.00
2268;BME280;11052;43.338;25.502;2023-03-02T01:49:47;101296.34;;;5.70;100.00
2268;BME280;11052;43.338;25.502;2023-03-02T01:52:16;101286.88;;;5.66;100.00
2268;BME280;11052;43.338;25.502;2023-03-02T01:54:46;101290.38;;;5.75;100.00
2268;BME280;11052;43.338;25.502;2023-03-02T01:57:20;101296.28;;;5.60;100.00
2268;BME280;11052;43.338;25.502;2023-03-02T01:59:52;101294.63;;;5.69;100.00
2268;BME280;11052;43.338;25.502;2023-03-02T02:02:20;101292.88;;;5.65;100.00
2268;BME280;11052;43.338;25.502;2023-03-02T02:04:49;101293.72;;;5.64;100.00
2268;BME280;11052;43.338;25.502;2023-03-02T02:07:16;101296.31;;;5.65;100.00
2268;BME280;11052;43.338;25.502;2023-03-02T02:09:46;101298.03;;;5.66;100.00
2268;BME280;11052;43.338;25.502;2023-03-02T02:12:15;101294.59;;;5.66;100.00
2268;BME280;11052;43.338;25.502;2023-03-02T02:14:43;101291.16;;;5.62;100.00
2268;BME280;11052;43.338;25.502;2023-03-02T02:17:11;101291.13;;;5.57;100.00
2268;BME280;11052;43.338;25.502;2023-03-02T02:19:59;101294.47;;;5.47;100.00
2268;BME280;11052;43.338;25.502;2023-03-02T02:22:37;101291.06;;;5.50;100.00
2268;BME280;11052;43.338;25.502;2023-03-02T02:25:17;101290.22;;;5.54;100.00
2268;BME280;11052;43.338;25.502;2023-03-02T02:27:48;101294.53;;;5.53;100.00
2268;BME280;11052;43.338;25.502;2023-03-02T02:30:17;101298.78;;;5.48;100.00
2268;BME280;11052;43.338;25.502;2023-03-02T02:32:47;101293.66;;;5.51;100.00
2268;BME280;11052;43.338;25.502;2023-03-02T02:35:17;101293.69;;;5.56;100.00
2268;BME280;11052;43.338;25.502;2023-03-02T02:37:49;101304.81;;;5.56;100.00
2268;BME280;11052;43.338;25.502;2023-03-02T02:40:20;101303.06;;;5.51;100.00
2268;BME280;11052;43.338;25.502;2023-03-02T02:42:50;101300.47;;;5.46;100.00
2268;BME280;11052;43.338;25.502;2023-03-02T02:45:21;101299.63;;;5.50;100.00
2268;BME280;11052;43.338;25.502;2023-03-02T02:47:49;101303.88;;;5.45;100.00
2268;BME280;11052;43.338;25.502;2023-03-02T02:50:20;101299.59;;;5.46;100.00
2268;BME280;11052;43.338;25.502;2023-03-02T02:52:52;101296.22;;;5.53;100.00
2268;BME280;11052;43.338;25.502;2023-03-02T02:55:22;101299.59;;;5.43;100.00
2268;BME280;11052;43.338;25.502;2023-03-02T02:57:53;101296.19;;;5.48;100.00
2268;BME280;11052;43.338;25.502;2023-03-02T03:00:23;101301.38;;;5.51;100.00
2268;BME280;11052;43.338;25.502;2023-03-02T03:02:52;101298.72;;;5.41;100.00
2268;BME280;11052;43.338;25.502;2023-03-02T03:05:22;101296.22;;;5.50;100.00
2268;BME280;11052;43.338;25.502;2023-03-02T03:07:49;101297.09;;;5.52;100.00
2268;BME280;11052;43.338;25.502;2023-03-02T03:10:18;101300.53;;;5.54;100.00
2268;BME280;11052;43.338;25.502;2023-03-02T03:12:51;101303.88;;;5.45;100.00
2268;BME280;11052;43.338;25.502;2023-03-02T03:15:19;101297.06;;;5.50;100.00
2268;BME280;11052;43.338;25.502;2023-03-02T03:17:47;101304.75;;;5.47;100.00
2268;BME280;11052;43.338;25.502;2023-03-02T03:20:15;101305.53;;;5.34;100.00
2268;BME280;11052;43.338;25.502;2023-03-02T03:22:43;101297.00;;;5.41;100.00
2268;BME280;11052;43.338;25.502;2023-03-02T03:25:10;101302.09;;;5.34;100.00
2268;BME280;11052;43.338;25.502;2023-03-02T03:27:40;101305.53;;;5.34;100.00
2268;BME280;11052;43.338;25.502;2023-03-02T03:30:12;101311.47;;;5.27;100.00
2268;BME280;11052;43.338;25.502;2023-03-02T03:32:40;101312.28;;;5.23;100.00
2268;BME280;11052;43.338;25.502;2023-03-02T03:35:08;101306.28;;;5.18;100.00
2268;BME280;11052;43.338;25.502;2023-03-02T03:37:37;101306.34;;;5.30;100.00
2268;BME280;11052;43.338;25.502;2023-03-02T03:40:06;101307.19;;;5.27;100.00
2268;BME280;11052;43.338;25.502;2023-03-02T03:42:35;101307.22;;;5.32;100.00
2268;BME280;11052;43.338;25.502;2023-03-02T03:45:03;101308.09;;;5.34;100.00
2268;BME280;11052;43.338;25.502;2023-03-02T03:47:31;101308.13;;;5.37;100.00
2268;BME280;11052;43.338;25.502;2023-03-02T03:49:58;101313.22;;;5.33;100.00
2268;BME280;11052;43.338;25.502;2023-03-02T03:52:26;101313.25;;;5.36;100.00
2268;BME280;11052;43.338;25.502;2023-03-02T03:54:57;101314.06;;;5.30;100.00
2268;BME280;11052;43.338;25.502;2023-03-02T03:57:25;101309.78;;;5.31;100.00
2268;BME280;11052;43.338;25.502;2023-03-02T03:59:52;101308.84;;;5.21;100.00
2268;BME280;11052;43.338;25.502;2023-03-02T04:02:20;101306.28;;;5.19;100.00
2268;BME280;11052;43.338;25.502;2023-03-02T04:04:49;101310.56;;;5.22;100.00
2268;BME280;11052;43.338;25.502;2023-03-02T04:07:16;101316.56;;;5.18;100.00
2268;BME280;11052;43.338;25.502;2023-03-02T04:09:43;101314.00;;;5.24;100.00
2268;BME280;11052;43.338;25.502;2023-03-02T04:12:10;101318.25;;;5.14;100.00
2268;BME280;11052;43.338;25.502;2023-03-02T04:14:37;101318.28;;;5.17;100.00
2268;BME280;11052;43.338;25.502;2023-03-02T04:17:04;101318.31;;;5.28;100.00
2268;BME280;11052;43.338;25.502;2023-03-02T04:19:32;101316.59;;;5.27;100.00
2268;BME280;11052;43.338;25.502;2023-03-02T04:22:03;101313.09;;;5.13;100.00
2268;BME280;11052;43.338;25.502;2023-03-02T04:24:30;101307.97;;;5.14;100.00
2268;BME280;11052;43.338;25.502;2023-03-02T04:26:57;101301.97;;;5.14;100.00
2268;BME280;11052;43.338;25.502;2023-03-02T04:29:25;101307.09;;;5.14;100.00
2268;BME280;11052;43.338;25.502;2023-03-02T04:31:52;101308.75;;;5.07;100.00
2268;BME280;11052;43.338;25.502;2023-03-02T04:34:19;101307.06;;;5.08;100.00
2268;BME280;11052;43.338;25.502;2023-03-02T04:36:46;101298.53;;;5.12;100.00
2268;BME280;11052;43.338;25.502;2023-03-02T04:39:16;101307.88;;;5.04;100.00
2268;BME280;11052;43.338;25.502;2023-03-02T04:41:44;101305.34;;;5.08;100.00
2268;BME280;11052;43.338;25.502;2023-03-02T04:44:12;101307.06;;;5.09;100.00
2268;BME280;11052;43.338;25.502;2023-03-02T04:46:41;101300.28;;;5.22;100.00
2268;BME280;11052;43.338;25.502;2023-03-02T04:49:08;101302.00;;;5.17;100.00
2268;BME280;11052;43.338;25.502;2023-03-02T04:51:36;101301.19;;;5.28;100.00
2268;BME280;11052;43.338;25.502;2023-03-02T04:54:06;101302.00;;;5.17;100.00
2268;BME280;11052;43.338;25.502;2023-03-02T04:56:35;101301.06;;;5.10;100.00
2268;BME280;11052;43.338;25.502;2023-03-02T04:59:02;101301.00;;;5.01;100.00
2268;BME280;11052;43.338;25.502;2023-03-02T05:01:29;101305.34;;;5.08;100.00
2268;BME280;11052;43.338;25.502;2023-03-02T05:03:56;101313.84;;;5.03;100.00
2268;BME280;11052;43.338;25.502;2023-03-02T05:06:23;101306.13;;;5.00;100.00
2268;BME280;11052;43.338;25.502;2023-03-02T05:08:51;101301.88;;;5.05;100.00
2268;BME280;11052;43.338;25.502;2023-03-02T05:11:19;101312.13;;;5.02;100.00
2268;BME280;11052;43.338;25.502;2023-03-02T05:13:58;101316.41;;;5.00;100.00
2268;BME280;11052;43.338;25.502;2023-03-02T05:16:27;101316.38;;;4.98;100.00
2268;BME280;11052;43.338;25.502;2023-03-02T05:18:56;101325.00;;;5.05;100.00
2268;BME280;11052;43.338;25.502;2023-03-02T05:21:23;101320.66;;;4.98;100.00
2268;BME280;11052;43.338;25.502;2023-03-02T05:23:51;101333.56;;;5.02;100.00
2268;BME280;11052;43.338;25.502;2023-03-02T05:26:19;101331.88;;;5.06;100.00
2268;BME280;11052;43.338;25.502;2023-03-02T05:28:46;101330.94;;;4.98;100.00
2268;BME280;11052;43.338;25.502;2023-03-02T05:31:17;101339.63;;;5.09;100.00
2268;BME280;11052;43.338;25.502;2023-03-02T05:33:44;101340.41;;;5.02;100.00
2268;BME280;11052;43.338;25.502;2023-03-02T05:36:12;101343.88;;;5.08;100.00
2268;BME280;11052;43.338;25.502;2023-03-02T05:38:39;101349.84;;;5.03;100.00
2268;BME280;11052;43.338;25.502;2023-03-02T05:41:06;101347.28;;;5.06;100.00
2268;BME280;11052;43.338;25.502;2023-03-02T05:43:33;101348.19;;;5.11;100.00
2268;BME280;11052;43.338;25.502;2023-03-02T05:46:01;101351.56;;;5.04;100.00
2268;BME280;11052;43.338;25.502;2023-03-02T05:48:29;101348.97;;;5.02;100.00
2268;BME280;11052;43.338;25.502;2023-03-02T05:50:57;101350.72;;;5.06;100.00
2268;BME280;11052;43.338;25.502;2023-03-02T05:53:24;101354.13;;;5.04;100.00
2268;BME280;11052;43.338;25.502;2023-03-02T05:55:52;101360.06;;;4.98;100.00
2268;BME280;11052;43.338;25.502;2023-03-02T05:58:19;101357.53;;;5.01;100.00
2268;BME280;11052;43.338;25.502;2023-03-02T06:00:47;101355.84;;;5.03;100.00
2268;BME280;11052;43.338;25.502;2023-03-02T06:03:14;101360.97;;;5.02;100.00
2268;BME280;11052;43.338;25.502;2023-03-02T06:05:43;101370.34;;;5.00;100.00
2268;BME280;11052;43.338;25.502;2023-03-02T06:08:15;101370.41;;;5.06;100.00
2268;BME280;11052;43.338;25.502;2023-03-02T06:10:42;101375.63;;;5.12;100.00
2268;BME280;11052;43.338;25.502;2023-03-02T06:13:09;101381.66;;;5.17;100.00
2268;BME280;11052;43.338;25.502;2023-03-02T06:15:36;101379.94;;;5.20;100.00
2268;BME280;11052;43.338;25.502;2023-03-02T06:18:05;101376.56;;;5.26;100.00
2268;BME280;11052;43.338;25.502;2023-03-02T06:20:32;101369.72;;;5.25;100.00
2268;BME280;11052;43.338;25.502;2023-03-02T06:23:01;101370.47;;;5.10;100.00
2268;BME280;11052;43.338;25.502;2023-03-02T06:25:28;101375.69;;;5.19;100.00
2268;BME280;11052;43.338;25.502;2023-03-02T06:27:56;101377.41;;;5.22;100.00
2268;BME280;11052;43.338;25.502;2023-03-02T06:30:24;101382.50;;;5.16;100.00
2268;BME280;11052;43.338;25.502;2023-03-02T06:32:52;101383.34;;;5.15;100.00
2268;BME280;11052;43.338;25.502;2023-03-02T06:35:20;101386.78;;;5.14;100.00
2268;BME280;11052;43.338;25.502;2023-03-02T06:37:48;101381.66;;;5.21;100.00
2268;BME280;11052;43.338;25.502;2023-03-02T06:40:17;101373.09;;;5.21;100.00
2268;BME280;11052;43.338;25.502;2023-03-02T06:42:46;101372.25;;;5.22;100.00
2268;BME280;11052;43.338;25.502;2023-03-02T06:45:13;101375.69;;;5.24;100.00
2268;BME280;11052;43.338;25.502;2023-03-02T06:47:40;101373.97;;;5.21;100.00
2268;BME280;11052;43.338;25.502;2023-03-02T06:50:09;101369.75;;;5.28;100.00
2268;BME280;11052;43.338;25.502;2023-03-02T06:52:36;101371.41;;;5.21;100.00
2268;BME280;11052;43.338;25.502;2023-03-02T06:55:04;101367.25;;;5.36;100.00
2268;BME280;11052;43.338;25.502;2023-03-02T06:57:33;101368.81;;;5.21;100.00
2268;BME280;11052;43.338;25.502;2023-03-02T07:00:00;101367.97;;;5.19;100.00
2268;BME280;11052;43.338;25.502;2023-03-02T07:02:32;101368.09;;;5.36;100.00
2268;BME280;11052;43.338;25.502;2023-03-02T07:04:59;101368.03;;;5.28;100.00
2268;BME280;11052;43.338;25.502;2023-03-02T07:07:26;101362.09;;;5.37;100.00
2268;BME280;11052;43.338;25.502;2023-03-02T07:09:53;101358.66;;;5.35;100.00
2268;BME280;11052;43.338;25.502;2023-03-02T07:12:20;101356.13;;;5.38;100.00
2268;BME280;11052;43.338;25.502;2023-03-02T07:14:49;101350.16;;;5.44;100.00
2268;BME280;11052;43.338;25.502;2023-03-02T07:17:16;101352.78;;;5.50;100.00
2268;BME280;11052;43.338;25.502;2023-03-02T07:19:43;101353.59;;;5.46;100.00
2268;BME280;11052;43.338;25.502;2023-03-02T07:22:10;101344.22;;;5.51;100.00
2268;BME280;11052;43.338;25.502;2023-03-02T07:24:37;101345.06;;;5.51;100.00
2268;BME280;11052;43.338;25.502;2023-03-02T07:27:05;101338.25;;;5.56;100.00
2268;BME280;11052;43.338;25.502;2023-03-02T07:29:32;101336.59;;;5.62;100.00
2268;BME280;11052;43.338;25.502;2023-03-02T07:32:00;101330.56;;;5.61;100.00
2268;BME280;11052;43.338;25.502;2023-03-02T07:34:27;101324.66;;;5.71;100.00
2268;BME280;11052;43.338;25.502;2023-03-02T07:36:55;101322.09;;;5.74;100.00
2268;BME280;11052;43.338;25.502;2023-03-02T07:39:22;101335.00;;;5.82;100.00
2268;BME280;11052;43.338;25.502;2023-03-02T07:41:49;101347.09;;;5.90;100.00
2268;BME280;11052;43.338;25.502;2023-03-02T07:44:16;101343.69;;;5.93;100.00
2268;BME280;11052;43.338;25.502;2023-03-02T07:46:43;101347.13;;;5.98;100.00
2268;BME280;11052;43.338;25.502;2023-03-02T07:49:12;101338.53;;;5.91;100.00
2268;BME280;11052;43.338;25.502;2023-03-02T07:51:39;101342.81;;;5.93;100.00
2268;BME280;11052;43.338;25.502;2023-03-02T07:54:06;101354.91;;;6.12;100.00
2268;BME280;11052;43.338;25.502;2023-03-02T07:56:33;101350.59;;;6.08;100.00
2268;BME280;11052;43.338;25.502;2023-03-02T07:59:01;101343.75;;;6.04;100.00
2268;BME280;11052;43.338;25.502;2023-03-02T08:01:28;101341.16;;;6.10;100.00
2268;BME280;11052;43.338;25.502;2023-03-02T08:03:55;101343.75;;;6.05;100.00
2268;BME280;11052;43.338;25.502;2023-03-02T08:06:24;101346.31;;;6.04;100.00
2268;BME280;11052;43.338;25.502;2023-03-02T08:08:51;101338.59;;;6.08;100.00
2268;BME280;11052;43.338;25.502;2023-03-02T08:11:18;101344.59;;;6.04;100.00
2268;BME280;11052;43.338;25.502;2023-03-02T08:13:45;101346.31;;;6.05;100.00
2268;BME280;11052;43.338;25.502;2023-03-02T08:16:13;101354.03;;;6.05;100.00
2268;BME280;11052;43.338;25.502;2023-03-02T08:18:41;101354.03;;;6.08;100.00
2268;BME280;11052;43.338;25.502;2023-03-02T08:21:13;101353.19;;;6.14;100.00
2268;BME280;11052;43.338;25.502;2023-03-02T08:23:42;101352.38;;;6.22;100.00
2268;BME280;11052;43.338;25.502;2023-03-02T08:26:10;101353.25;;;6.23;100.00
2268;BME280;11052;43.338;25.502;2023-03-02T08:28:37;101354.94;;;6.19;100.00
2268;BME280;11052;43.338;25.502;2023-03-02T08:31:05;101359.25;;;6.22;100.00
2268;BME280;11052;43.338;25.502;2023-03-02T08:33:33;101365.25;;;6.24;100.00
2268;BME280;11052;43.338;25.502;2023-03-02T08:36:02;101366.13;;;6.24;100.00
2268;BME280;11052;43.338;25.502;2023-03-02T08:38:31;101361.00;;;6.28;100.00
2268;BME280;11052;43.338;25.502;2023-03-02T08:41:01;101356.69;;;6.25;100.00
2268;BME280;11052;43.338;25.502;2023-03-02T08:43:31;101360.16;;;6.32;100.00
2268;BME280;11052;43.338;25.502;2023-03-02T08:45:59;101368.72;;;6.31;100.00
2268;BME280;11052;43.338;25.502;2023-03-02T08:48:26;101376.47;;;6.34;100.00
2268;BME280;11052;43.338;25.502;2023-03-02T08:50:55;101372.16;;;6.31;100.00
2268;BME280;11052;43.338;25.502;2023-03-02T08:53:22;101367.00;;;6.30;100.00
2268;BME280;11052;43.338;25.502;2023-03-02T08:55:50;101362.75;;;6.35;100.00
2268;BME280;11052;43.338;25.502;2023-03-02T08:58:18;101366.16;;;6.34;100.00
2268;BME280;11052;43.338;25.502;2023-03-02T09:00:46;101373.94;;;6.41;100.00
2268;BME280;11052;43.338;25.502;2023-03-02T09:03:13;101365.34;;;6.45;100.00
2268;BME280;11052;43.338;25.502;2023-03-02T09:05:40;101363.66;;;6.50;100.00
2268;BME280;11052;43.338;25.502;2023-03-02T09:08:08;101367.13;;;6.55;100.00
2268;BME280;11052;43.338;25.502;2023-03-02T09:10:36;101353.38;;;6.58;100.00
2268;BME280;11052;43.338;25.502;2023-03-02T09:13:03;101359.41;;;6.60;100.00
2268;BME280;11052;43.338;25.502;2023-03-02T09:15:32;101351.72;;;6.72;100.00
2268;BME280;11052;43.338;25.502;2023-03-02T09:17:59;101350.88;;;6.82;100.00
2268;BME280;11052;43.338;25.502;2023-03-02T09:20:26;101346.59;;;6.90;100.00
2268;BME280;11052;43.338;25.502;2023-03-02T09:22:53;101352.59;;;6.82;100.00
2268;BME280;11052;43.338;25.502;2023-03-02T09:25:21;101342.28;;;6.77;100.00
2268;BME280;11052;43.338;25.502;2023-03-02T09:27:48;101348.31;;;6.81;100.00
2268;BME280;11052;43.338;25.502;2023-03-02T09:30:15;101346.59;;;6.90;100.00
2268;BME280;11052;43.338;25.502;2023-03-02T09:32:44;101346.59;;;6.89;100.00
2268;BME280;11052;43.338;25.502;2023-03-02T09:35:11;101339.72;;;6.82;100.00
2268;BME280;11052;43.338;25.502;2023-03-02T09:37:38;101344.00;;;6.78;100.00
2268;BME280;11052;43.338;25.502;2023-03-02T09:40:16;101339.72;;;6.86;100.00
2268;BME280;11052;43.338;25.502;2023-03-02T09:42:57;101342.28;;;6.86;100.00
2268;BME280;11052;43.338;25.502;2023-03-02T09:45:57;101344.03;;;6.92;100.00
2268;BME280;11052;43.338;25.502;2023-03-02T09:48:37;101330.28;;;6.85;100.00
2268;BME280;11052;43.338;25.502;2023-03-02T09:51:15;101334.56;;;6.91;100.00
2268;BME280;11052;43.338;25.502;2023-03-02T09:53:52;101330.28;;;6.85;100.00
2268;BME280;11052;43.338;25.502;2023-03-02T09:56:22;101324.25;;;6.91;100.00
2268;BME280;11052;43.338;25.502;2023-03-02T09:58:54;101315.66;;;6.94;100.00
2268;BME280;11052;43.338;25.502;2023-03-02T10:01:33;101319.09;;;6.80;100.00
2268;BME280;11052;43.338;25.502;2023-03-02T10:04:10;101313.94;;;6.74;100.00
2268;BME280;11052;43.338;25.502;2023-03-02T10:06:39;101315.66;;;6.78;100.00
2268;BME280;11052;43.338;25.502;2023-03-02T10:09:08;101318.25;;;6.83;100.00
2268;BME280;11052;43.338;25.502;2023-03-02T10:11:41;101313.94;;;6.82;100.00
2268;BME280;11052;43.338;25.502;2023-03-02T10:14:17;101317.38;;;6.87;100.00
2268;BME280;11052;43.338;25.502;2023-03-02T10:16:48;101304.50;;;6.82;100.00
2268;BME280;11052;43.338;25.502;2023-03-02T10:19:23;101301.94;;;6.93;100.00
2268;BME280;11052;43.338;25.502;2023-03-02T10:21:57;101287.31;;;6.84;100.00
2268;BME280;11052;43.338;25.502;2023-03-02T10:24:30;101292.47;;;6.84;100.00
2268;BME280;11052;43.338;25.502;2023-03-02T10:27:04;101289.00;;;6.70;100.00
2268;BME280;11052;43.338;25.502;2023-03-02T10:29:48;101289.88;;;6.77;100.00
2268;BME280;11052;43.338;25.502;2023-03-02T10:32:21;101289.00;;;6.64;100.00
2268;BME280;11052;43.338;25.502;2023-03-02T10:34:51;101287.31;;;6.77;100.00
2268;BME280;11052;43.338;25.502;2023-03-02T10:37:21;101286.44;;;6.73;100.00
2268;BME280;11052;43.338;25.502;2023-03-02T10:39:49;101287.28;;;6.68;100.00
2268;BME280;11052;43.338;25.502;2023-03-02T10:42:19;101286.41;;;6.58;100.00
2268;BME280;11052;43.338;25.502;2023-03-02T10:44:50;101278.69;;;6.61;100.00
2268;BME280;11052;43.338;25.502;2023-03-02T10:47:20;101280.38;;;6.53;100.00
2268;BME280;11052;43.338;25.502;2023-03-02T10:49:48;101283.00;;;6.65;100.00
2268;BME280;11052;43.338;25.502;2023-03-02T10:52:19;101275.25;;;6.56;100.00
2268;BME280;11052;43.338;25.502;2023-03-02T10:54:46;101279.53;;;6.52;100.00
2268;BME280;11052;43.338;25.502;2023-03-02T10:57:29;101276.13;;;6.63;100.00
2268;BME280;11052;43.338;25.502;2023-03-02T10:59:59;101275.28;;;6.82;100.00
2268;BME280;11052;43.338;25.502;2023-03-02T11:02:28;101269.22;;;6.57;100.00
2268;BME280;11052;43.338;25.502;2023-03-02T11:05:17;101275.28;;;6.70;100.00
2268;BME280;11052;43.338;25.502;2023-03-02T11:07:53;101274.41;;;6.66;100.00
2268;BME280;11052;43.338;25.502;2023-03-02T11:10:21;101273.56;;;6.75;100.00
2268;BME280;11052;43.338;25.502;2023-03-02T11:12:51;101271.81;;;6.66;100.00
2268;BME280;11052;43.338;25.502;2023-03-02T11:15:23;101270.97;;;6.73;100.00
2268;BME280;11052;43.338;25.502;2023-03-02T11:17:54;101270.97;;;6.72;100.00
2268;BME280;11052;43.338;25.502;2023-03-02T11:20:29;101264.97;;;6.79;100.00
2268;BME280;11052;43.338;25.502;2023-03-02T11:23:17;101273.56;;;6.82;100.00
2268;BME280;11052;43.338;25.502;2023-03-02T11:25:51;101270.13;;;6.86;100.00
2268;BME280;11052;43.338;25.502;2023-03-02T11:28:39;101274.41;;;6.95;100.00
2268;BME280;11052;43.338;25.502;2023-03-02T11:31:15;101271.84;;;6.89;100.00
2268;BME280;11052;43.338;25.502;2023-03-02T11:33:57;101270.97;;;6.96;100.00
2268;BME280;11052;43.338;25.502;2023-03-02T11:36:36;101264.97;;;6.89;100.00
2268;BME280;11052;43.338;25.502;2023-03-02T11:39:12;101263.28;;;6.93;100.00
2268;BME280;11052;43.338;25.502;2023-03-02T11:41:41;101268.41;;;6.82;100.00
2268;BME280;11052;43.338;25.502;2023-03-02T11:44:13;101267.56;;;6.82;100.00
2268;BME280;11052;43.338;25.502;2023-03-02T11:46:43;101273.56;;;6.81;100.00
2268;BME280;11052;43.338;25.502;2023-03-02T11:49:16;101272.72;;;6.80;100.00
2268;BME280;11052;43.338;25.502;2023-03-02T11:51:54;101266.69;;;6.89;100.00
2268;BME280;11052;43.338;25.502;2023-03-02T11:54:33;101268.41;;;6.84;100.00
2268;BME280;11052;43.338;25.502;2023-03-02T11:57:02;101264.13;;;6.92;100.00
2268;BME280;11052;43.338;25.502;2023-03-02T11:59:31;101263.28;;;6.93;100.00
2268;BME280;11052;43.338;25.502;2023-03-02T12:02:00;101258.94;;;6.94;100.00
2268;BME280;11052;43.338;25.502;2023-03-02T12:04:30;101252.94;;;6.95;100.00
2268;BME280;11052;43.338;25.502;2023-03-02T12:06:59;101245.22;;;6.90;100.00
2268;BME280;11052;43.338;25.502;2023-03-02T12:09:32;101253.78;;;7.01;100.00
2268;BME280;11052;43.338;25.502;2023-03-02T12:12:16;101252.94;;;7.05;100.00
2268;BME280;11052;43.338;25.502;2023-03-02T12:14:52;101246.06;;;7.15;100.00
2268;BME280;11052;43.338;25.502;2023-03-02T12:17:29;101245.19;;;7.13;100.00
2268;BME280;11052;43.338;25.502;2023-03-02T12:20:21;101243.47;;;7.10;100.00
2268;BME280;11052;43.338;25.502;2023-03-02T12:22:49;101246.03;;;7.22;100.00
2268;BME280;11052;43.338;25.502;2023-03-02T12:25:37;101240.03;;;7.28;100.00
2268;BME280;11052;43.338;25.502;2023-03-02T12:28:24;101246.91;;;7.28;100.00
2268;BME280;11052;43.338;25.502;2023-03-02T12:31:00;101245.19;;;7.20;100.00
2268;BME280;11052;43.338;25.502;2023-03-02T12:33:28;101240.88;;;7.18;100.00
2268;BME280;11052;43.338;25.502;2023-03-02T12:36:04;101246.03;;;7.27;100.00
2268;BME280;11052;43.338;25.502;2023-03-02T12:38:36;101247.75;;;7.17;100.00
2268;BME280;11052;43.338;25.502;2023-03-02T12:41:16;101239.16;;;7.17;100.00
2268;BME280;11052;43.338;25.502;2023-03-02T12:43:57;101243.47;;;7.16;100.00
2268;BME280;11052;43.338;25.502;2023-03-02T12:46:30;101248.63;;;7.06;100.00
2268;BME280;11052;43.338;25.502;2023-03-02T12:49:20;101246.09;;;6.84;100.00
2268;BME280;11052;43.338;25.502;2023-03-02T12:51:54;101243.50;;;6.92;100.00
2268;BME280;11052;43.338;25.502;2023-03-02T12:54:25;101240.06;;;6.81;100.00
2268;BME280;11052;43.338;25.502;2023-03-02T12:57:04;101234.03;;;6.96;100.00
2268;BME280;11052;43.338;25.502;2023-03-02T12:59:33;101241.78;;;6.93;100.00
2268;BME280;11052;43.338;25.502;2023-03-02T13:02:06;101232.34;;;6.79;100.00
2268;BME280;11052;43.338;25.502;2023-03-02T13:04:38;101242.66;;;6.84;100.00